Time;durP1;ratioP1;P1;durP2;ratioP2;P2;SDS_P1;SDS_P2;PMS_P1;PMS_P2;Temp;Humidity;BMP_temperature;BMP_pressure;BME280_temperature;BME280_humidity;BME280_pressure;Samples;Min_cycle;Max_cycle;Signal;HPM_P1;HPM_P2
2021/12/19 00:00:37;;;;;;;5.28;1.75;;;;;;;;;;5028412;28;20053;-84
2021/12/19 00:11:19;;;;;;;3.53;1.17;;;;;;;;;;5047446;28;20091;-85
2021/12/19 00:13:46;;;;;;;4.22;1.00;;;;;;;;;;5048443;28;20083;-85
2021/12/19 00:16:13;;;;;;;4.82;1.00;;;;;;;;;;5028880;28;20036;-85
2021/12/19 00:18:43;;;;;;;4.30;1.10;;;;;;;;;;5029796;28;20057;-86
2021/12/19 00:21:11;;;;;;;4.53;1.33;;;;;;;;;;5051791;28;20584;-86
2021/12/19 00:23:38;;;;;;;4.47;1.00;;;;;;;;;;5042947;28;20092;-87
2021/12/19 00:26:04;;;;;;;5.22;1.20;;;;;;;;;;5050630;28;20529;-85
2021/12/19 00:28:31;;;;;;;5.63;1.33;;;;;;;;;;5048026;28;20496;-86
2021/12/19 00:30:57;;;;;;;4.38;1.20;;;;;;;;;;5048842;28;20118;-88
2021/12/19 00:33:24;;;;;;;4.22;1.40;;;;;;;;;;5051239;28;20058;-86
2021/12/19 00:35:50;;;;;;;4.85;0.95;;;;;;;;;;5055069;28;20082;-86
2021/12/19 00:38:17;;;;;;;4.30;1.27;;;;;;;;;;5053309;28;20539;-86
2021/12/19 00:40:43;;;;;;;4.55;1.35;;;;;;;;;;5039335;28;20032;-86
2021/12/19 00:43:22;;;;;;;5.65;1.40;;;;;;;;;;5051087;28;20080;-85
2021/12/19 00:45:49;;;;;;;4.60;1.20;;;;;;;;;;5057161;28;20126;-87
2021/12/19 00:48:16;;;;;;;4.03;1.10;;;;;;;;;;5049810;28;20566;-87
2021/12/19 00:50:43;;;;;;;3.60;1.13;;;;;;;;;;5049356;28;20151;-87
2021/12/19 00:53:10;;;;;;;4.68;1.10;;;;;;;;;;5059461;28;20041;-85
2021/12/19 00:55:36;;;;;;;3.90;1.02;;;;;;;;;;5036264;28;20626;-85
2021/12/19 00:58:03;;;;;;;3.67;1.20;;;;;;;;;;5054838;28;20106;-86
2021/12/19 01:00:31;;;;;;;3.33;1.13;;;;;;;;;;5052236;28;20056;-85
2021/12/19 01:02:59;;;;;;;4.43;1.45;;;;;;;;;;5040320;28;20517;-85
2021/12/19 01:05:31;;;;;;;5.45;1.27;;;;;;;;;;5050236;28;20103;-84
2021/12/19 01:07:58;;;;;;;4.90;1.38;;;;;;;;;;5051476;28;20068;-85
2021/12/19 01:10:24;;;;;;;2.40;1.00;;;;;;;;;;5054077;28;20115;-81
2021/12/19 01:12:50;;;;;;;4.60;1.00;;;;;;;;;;5051587;28;20509;-84
2021/12/19 01:15:19;;;;;;;3.90;1.40;;;;;;;;;;5055494;28;20051;-84
2021/12/19 01:17:45;;;;;;;4.72;1.27;;;;;;;;;;5052724;28;20504;-86
2021/12/19 01:20:23;;;;;;;5.22;1.50;;;;;;;;;;5041088;28;20063;-85
2021/12/19 01:22:50;;;;;;;4.10;1.10;;;;;;;;;;5056719;28;21906;-85
2021/12/19 01:25:16;;;;;;;5.22;1.52;;;;;;;;;;5064131;28;20052;-86
2021/12/19 01:27:43;;;;;;;4.15;1.30;;;;;;;;;;5052035;28;20052;-84
2021/12/19 01:30:10;;;;;;;6.25;1.67;;;;;;;;;;5053377;28;20546;-84
2021/12/19 01:32:37;;;;;;;4.20;1.20;;;;;;;;;;5054661;28;20032;-83
2021/12/19 01:35:04;;;;;;;4.68;1.17;;;;;;;;;;5038947;28;20360;-85
2021/12/19 01:37:31;;;;;;;2.97;1.00;;;;;;;;;;5053339;28;20088;-84
2021/12/19 01:39:57;;;;;;;3.15;1.20;;;;;;;;;;5013945;28;20029;-86
2021/12/19 01:42:29;;;;;;;4.68;1.30;;;;;;;;;;5057233;28;20067;-87
2021/12/19 01:44:56;;;;;;;2.70;0.90;;;;;;;;;;5059554;28;20060;-86
2021/12/19 01:47:23;;;;;;;3.80;1.05;;;;;;;;;;5051180;28;20056;-83
2021/12/19 01:49:49;;;;;;;5.53;1.17;;;;;;;;;;5027665;28;20060;-86
2021/12/19 01:52:15;;;;;;;5.97;1.25;;;;;;;;;;5054637;28;20033;-87
2021/12/19 01:54:43;;;;;;;3.05;1.13;;;;;;;;;;5030478;28;20061;-86
2021/12/19 01:57:09;;;;;;;2.83;0.90;;;;;;;;;;5053614;28;20501;-88
2021/12/19 01:59:36;;;;;;;4.40;1.35;;;;;;;;;;5047959;28;20056;-87
2021/12/19 02:02:03;;;;;;;4.22;1.00;;;;;;;;;;5048444;28;20116;-87
2021/12/19 02:04:30;;;;;;;5.03;1.40;;;;;;;;;;5048139;28;20516;-85
2021/12/19 02:06:58;;;;;;;3.35;0.90;;;;;;;;;;5024435;28;20084;-85
2021/12/19 02:09:25;;;;;;;3.47;1.02;;;;;;;;;;5055966;28;20072;-82
2021/12/19 02:11:52;;;;;;;3.20;0.90;;;;;;;;;;5050287;28;20048;-83
2021/12/19 02:14:18;;;;;;;3.72;1.02;;;;;;;;;;5048579;28;20052;-85
2021/12/19 02:16:45;;;;;;;5.90;1.50;;;;;;;;;;5051493;28;20060;-84
2021/12/19 02:19:12;;;;;;;4.60;1.20;;;;;;;;;;5016793;28;20386;-84
2021/12/19 02:21:39;;;;;;;5.30;1.10;;;;;;;;;;5050321;28;20057;-85
2021/12/19 02:24:07;;;;;;;4.18;1.10;;;;;;;;;;5047578;28;20067;-86
2021/12/19 02:26:35;;;;;;;3.28;1.40;;;;;;;;;;5054470;28;20469;-86
2021/12/19 02:29:02;;;;;;;4.18;1.42;;;;;;;;;;5042084;28;20057;-88
2021/12/19 02:31:29;;;;;;;4.65;1.15;;;;;;;;;;5052716;28;20083;-85
2021/12/19 02:34:07;;;;;;;3.80;0.90;;;;;;;;;;5051419;28;20085;-87
2021/12/19 02:50:20;;;;;;;3.78;1.25;;;;;;;;;;5048174;28;20056;-82
2021/12/19 02:52:47;;;;;;;3.63;1.10;;;;;;;;;;5030477;28;20064;-81
2021/12/19 02:55:17;;;;;;;4.28;1.00;;;;;;;;;;5055917;28;20064;-82
2021/12/19 02:57:44;;;;;;;4.43;0.98;;;;;;;;;;5037943;28;20043;-81
2021/12/19 03:00:13;;;;;;;4.80;0.90;;;;;;;;;;5043671;28;20631;-81
2021/12/19 03:02:39;;;;;;;4.25;1.00;;;;;;;;;;5031718;28;20068;-81
2021/12/19 03:05:06;;;;;;;2.13;0.88;;;;;;;;;;5055890;28;20064;-81
2021/12/19 03:07:38;;;;;;;3.95;1.02;;;;;;;;;;5052080;28;20056;-81
2021/12/19 03:18:12;;;;;;;3.55;0.95;;;;;;;;;;5053674;28;20056;-83
2021/12/19 03:20:39;;;;;;;3.65;0.90;;;;;;;;;;5033709;28;20045;-82
2021/12/19 03:23:06;;;;;;;3.63;0.82;;;;;;;;;;5062690;28;20039;-84
2021/12/19 03:25:33;;;;;;;3.78;0.88;;;;;;;;;;5053595;28;20044;-84
2021/12/19 03:28:00;;;;;;;3.08;1.17;;;;;;;;;;5054814;28;20041;-82
2021/12/19 03:30:26;;;;;;;3.35;1.08;;;;;;;;;;5045485;28;20072;-86
2021/12/19 03:32:53;;;;;;;3.70;1.08;;;;;;;;;;5036922;28;20547;-89
2021/12/19 03:35:19;;;;;;;5.50;1.50;;;;;;;;;;5034939;28;20060;-88
2021/12/19 03:37:50;;;;;;;4.00;1.35;;;;;;;;;;5048767;28;20130;-88
2021/12/19 03:40:22;;;;;;;4.68;1.10;;;;;;;;;;5039941;28;20033;-87
2021/12/19 03:42:50;;;;;;;3.80;1.00;;;;;;;;;;5028395;28;20429;-87
2021/12/19 03:45:17;;;;;;;3.15;1.00;;;;;;;;;;5050723;28;20032;-85
2021/12/19 03:47:44;;;;;;;4.45;1.20;;;;;;;;;;5055879;28;20029;-87
2021/12/19 03:50:15;;;;;;;4.78;1.00;;;;;;;;;;5053511;28;20574;-86
2021/12/19 03:52:41;;;;;;;4.20;1.13;;;;;;;;;;5057755;28;20059;-85
2021/12/19 03:55:08;;;;;;;3.30;0.80;;;;;;;;;;5052506;28;20026;-85
2021/12/19 03:57:34;;;;;;;4.32;0.77;;;;;;;;;;5050466;28;20095;-84
2021/12/19 04:00:01;;;;;;;6.20;1.45;;;;;;;;;;5049289;28;20060;-84
2021/12/19 04:02:29;;;;;;;2.83;1.08;;;;;;;;;;5048104;28;20068;-83
2021/12/19 04:04:56;;;;;;;5.10;1.25;;;;;;;;;;5060246;28;20072;-85
2021/12/19 04:07:23;;;;;;;2.63;1.15;;;;;;;;;;5051739;28;20069;-84
2021/12/19 04:09:49;;;;;;;2.80;1.00;;;;;;;;;;5051165;28;22223;-82
2021/12/19 04:12:16;;;;;;;6.88;1.02;;;;;;;;;;5054659;28;20480;-88
2021/12/19 04:14:42;;;;;;;3.22;0.93;;;;;;;;;;5037519;28;20029;-87
2021/12/19 04:17:09;;;;;;;2.92;0.95;;;;;;;;;;5058785;28;20029;-86
2021/12/19 04:19:36;;;;;;;3.88;0.90;;;;;;;;;;5052941;28;20037;-87
2021/12/19 04:22:03;;;;;;;3.25;1.10;;;;;;;;;;5031376;28;20037;-85
2021/12/19 04:24:29;;;;;;;3.33;0.82;;;;;;;;;;5041977;28;20048;-84
2021/12/19 04:26:57;;;;;;;4.28;1.00;;;;;;;;;;5062928;28;20033;-86
2021/12/19 04:29:24;;;;;;;4.15;1.02;;;;;;;;;;5052814;28;20477;-81
2021/12/19 04:31:51;;;;;;;2.30;0.70;;;;;;;;;;5056767;28;20044;-86
2021/12/19 04:34:18;;;;;;;3.55;1.17;;;;;;;;;;5051300;28;20069;-87
2021/12/19 04:36:48;;;;;;;2.60;1.02;;;;;;;;;;5071135;28;20033;-87
2021/12/19 04:39:29;;;;;;;4.68;1.05;;;;;;;;;;5072378;28;20037;-86
2021/12/19 04:42:51;;;;;;;2.35;0.63;;;;;;;;;;5077618;28;21570;-86
2021/12/19 04:55:42;;;;;;;3.75;1.17;;;;;;;;;;5075605;28;20052;-85
2021/12/19 05:01:07;;;;;;;3.28;0.88;;;;;;;;;;5063194;28;20021;-87
2021/12/19 05:16:29;;;;;;;3.00;0.90;;;;;;;;;;5049361;28;20025;-82
2021/12/19 05:19:03;;;;;;;4.00;1.13;;;;;;;;;;5049437;28;20053;-83
2021/12/19 05:21:30;;;;;;;2.42;0.88;;;;;;;;;;5035738;28;20037;-84
2021/12/19 05:26:23;;;;;;;6.15;1.25;;;;;;;;;;5059188;28;20029;-85
2021/12/19 05:28:52;;;;;;;2.65;0.93;;;;;;;;;;5052848;28;20473;-85
2021/12/19 05:31:21;;;;;;;2.00;0.88;;;;;;;;;;5057668;28;20033;-83
2021/12/19 05:33:48;;;;;;;4.05;0.90;;;;;;;;;;5055025;28;20041;-84
2021/12/19 05:46:54;;;;;;;3.00;0.90;;;;;;;;;;5043202;28;21226;-85
2021/12/19 05:49:21;;;;;;;2.88;0.95;;;;;;;;;;5052102;28;20048;-88
2021/12/19 05:51:47;;;;;;;2.15;0.60;;;;;;;;;;5047773;28;20059;-85
2021/12/19 05:54:14;;;;;;;2.22;0.90;;;;;;;;;;5030082;28;20061;-80
2021/12/19 05:56:40;;;;;;;4.15;1.10;;;;;;;;;;5041819;28;20064;-85
2021/12/19 05:59:08;;;;;;;2.10;0.90;;;;;;;;;;5059359;28;20060;-86
2021/12/19 06:01:35;;;;;;;1.85;0.70;;;;;;;;;;5050265;28;20061;-86
2021/12/19 06:04:02;;;;;;;2.75;0.70;;;;;;;;;;5050143;28;20056;-86
2021/12/19 06:06:28;;;;;;;2.38;0.80;;;;;;;;;;5050308;28;20069;-86
2021/12/19 06:08:55;;;;;;;4.80;1.05;;;;;;;;;;5050663;28;20055;-85
2021/12/19 06:11:21;;;;;;;3.30;0.80;;;;;;;;;;5050201;28;20106;-85
2021/12/19 06:13:47;;;;;;;3.78;1.10;;;;;;;;;;5048543;28;20067;-84
2021/12/19 06:16:14;;;;;;;4.15;0.82;;;;;;;;;;5047990;28;20064;-85
2021/12/19 06:18:40;;;;;;;5.75;0.90;;;;;;;;;;5050295;28;20048;-86
2021/12/19 06:21:07;;;;;;;2.63;0.88;;;;;;;;;;5049669;28;20059;-86
2021/12/19 06:23:33;;;;;;;3.97;1.20;;;;;;;;;;5046920;28;20068;-84
2021/12/19 06:26:00;;;;;;;4.07;1.30;;;;;;;;;;5050532;28;20060;-83
2021/12/19 06:28:26;;;;;;;6.00;1.50;;;;;;;;;;5048576;28;20095;-83
2021/12/19 06:30:53;;;;;;;4.13;1.35;;;;;;;;;;5048659;28;20042;-86
2021/12/19 06:33:19;;;;;;;4.60;0.98;;;;;;;;;;5048582;28;20072;-82
2021/12/19 06:35:46;;;;;;;3.40;1.30;;;;;;;;;;5049139;28;20048;-85
2021/12/19 06:38:14;;;;;;;5.13;2.03;;;;;;;;;;5051249;28;20068;-81
2021/12/19 06:40:40;;;;;;;4.40;1.23;;;;;;;;;;5049212;28;20065;-82
2021/12/19 06:43:09;;;;;;;5.55;1.63;;;;;;;;;;5031667;28;20056;-82
2021/12/19 06:45:36;;;;;;;6.22;2.25;;;;;;;;;;5049020;28;20450;-81
2021/12/19 06:48:02;;;;;;;7.15;2.22;;;;;;;;;;5049454;28;20067;-80
2021/12/19 06:50:29;;;;;;;7.43;2.08;;;;;;;;;;5048159;28;20065;-80
2021/12/19 06:52:55;;;;;;;5.38;1.73;;;;;;;;;;5048853;28;20071;-82
2021/12/19 06:55:22;;;;;;;11.82;2.35;;;;;;;;;;5032323;28;20041;-81
2021/12/19 06:57:49;;;;;;;5.57;2.10;;;;;;;;;;5035050;28;20613;-81
2021/12/19 07:00:17;;;;;;;5.97;2.15;;;;;;;;;;5060406;28;20866;-80
2021/12/19 07:02:43;;;;;;;9.50;2.55;;;;;;;;;;5046841;28;20032;-78
2021/12/19 07:05:10;;;;;;;12.30;3.05;;;;;;;;;;5043714;28;20069;-79
2021/12/19 07:07:37;;;;;;;9.93;2.50;;;;;;;;;;5045032;28;20068;-80
2021/12/19 07:10:03;;;;;;;7.22;2.40;;;;;;;;;;5044253;28;20511;-79
2021/12/19 07:12:30;;;;;;;9.05;3.03;;;;;;;;;;5046376;28;20061;-78
2021/12/19 07:14:58;;;;;;;12.98;2.80;;;;;;;;;;5022453;28;20075;-78
2021/12/19 07:17:25;;;;;;;11.35;2.17;;;;;;;;;;5045783;28;20083;-78
2021/12/19 07:19:51;;;;;;;8.38;2.40;;;;;;;;;;5048705;28;20063;-80
2021/12/19 07:22:19;;;;;;;7.57;2.67;;;;;;;;;;5045817;28;20060;-82
2021/12/19 07:24:45;;;;;;;7.63;2.40;;;;;;;;;;5047824;28;20110;-82
2021/12/19 07:27:13;;;;;;;7.10;2.33;;;;;;;;;;5047916;28;20056;-83
2021/12/19 07:29:39;;;;;;;8.13;2.28;;;;;;;;;;5028262;28;20049;-84
2021/12/19 07:32:06;;;;;;;8.15;2.40;;;;;;;;;;5051166;28;20060;-89
2021/12/19 07:34:35;;;;;;;7.45;2.47;;;;;;;;;;5050531;28;20071;-79
2021/12/19 07:37:01;;;;;;;8.43;1.80;;;;;;;;;;5007162;28;20103;-79
2021/12/19 07:42:06;;;;;;;6.53;1.55;;;;;;;;;;5047836;28;20060;-84
2021/12/19 07:44:33;;;;;;;7.63;1.95;;;;;;;;;;5044276;28;20068;-79
2021/12/19 07:46:59;;;;;;;8.98;2.17;;;;;;;;;;5048209;28;20445;-80
2021/12/19 07:49:26;;;;;;;6.22;1.63;;;;;;;;;;5044880;28;20072;-81
2021/12/19 07:51:52;;;;;;;6.82;1.60;;;;;;;;;;5047492;28;20060;-81
2021/12/19 07:54:19;;;;;;;6.82;1.88;;;;;;;;;;5046255;28;20052;-79
2021/12/19 07:56:46;;;;;;;8.02;2.20;;;;;;;;;;5045495;28;20056;-80
2021/12/19 07:59:13;;;;;;;6.43;1.90;;;;;;;;;;5046968;28;20065;-80
2021/12/19 08:01:40;;;;;;;8.35;2.05;;;;;;;;;;5042643;28;20032;-80
2021/12/19 08:04:06;;;;;;;4.75;1.67;;;;;;;;;;5046056;28;20122;-80
2021/12/19 08:06:32;;;;;;;4.85;1.35;;;;;;;;;;5044307;28;20064;-80
2021/12/19 08:09:07;;;;;;;8.85;2.58;;;;;;;;;;5043062;28;20528;-81
2021/12/19 08:11:40;;;;;;;7.47;1.90;;;;;;;;;;5045136;28;20056;-79
2021/12/19 08:14:11;;;;;;;5.75;1.60;;;;;;;;;;5046007;28;20083;-86
2021/12/19 08:16:37;;;;;;;7.18;1.88;;;;;;;;;;5044810;28;20622;-82
2021/12/19 08:19:04;;;;;;;7.03;1.60;;;;;;;;;;5047616;28;20068;-80
2021/12/19 08:21:30;;;;;;;6.47;1.55;;;;;;;;;;5044912;28;20485;-80
2021/12/19 08:24:08;;;;;;;8.07;2.00;;;;;;;;;;5048211;28;20068;-81
2021/12/19 08:26:34;;;;;;;6.80;1.58;;;;;;;;;;5047468;28;20560;-80
2021/12/19 08:29:01;;;;;;;5.25;1.60;;;;;;;;;;5048252;28;21047;-80
2021/12/19 08:31:27;;;;;;;6.22;2.10;;;;;;;;;;5051066;28;20045;-79
2021/12/19 08:33:54;;;;;;;6.35;1.60;;;;;;;;;;5048206;28;20069;-81
2021/12/19 08:36:20;;;;;;;4.63;1.40;;;;;;;;;;5046819;28;20146;-81
2021/12/19 08:38:47;;;;;;;6.40;1.83;;;;;;;;;;5043164;28;20065;-80
2021/12/19 08:41:14;;;;;;;6.93;1.80;;;;;;;;;;5047829;28;20053;-82
2021/12/19 08:43:41;;;;;;;7.97;2.03;;;;;;;;;;5043314;28;20194;-82
2021/12/19 08:46:09;;;;;;;5.85;1.50;;;;;;;;;;5058726;28;20065;-82
2021/12/19 08:48:35;;;;;;;3.50;1.48;;;;;;;;;;5053338;28;20069;-82
2021/12/19 08:51:02;;;;;;;4.68;1.48;;;;;;;;;;5009397;28;20056;-82
2021/12/19 08:53:29;;;;;;;5.55;1.63;;;;;;;;;;5048667;28;20072;-81
2021/12/19 08:55:55;;;;;;;4.53;1.58;;;;;;;;;;5050554;28;20057;-80
2021/12/19 08:58:21;;;;;;;6.43;1.10;;;;;;;;;;5033175;28;20040;-80
2021/12/19 09:00:48;;;;;;;6.88;1.38;;;;;;;;;;5052365;28;20056;-82
2021/12/19 09:03:15;;;;;;;6.03;1.40;;;;;;;;;;5029765;28;20142;-80
2021/12/19 09:05:41;;;;;;;4.95;1.45;;;;;;;;;;5044905;28;20508;-80
2021/12/19 09:08:08;;;;;;;5.43;1.25;;;;;;;;;;5049872;28;20069;-80
2021/12/19 09:10:34;;;;;;;8.27;1.50;;;;;;;;;;5032983;28;20057;-80
2021/12/19 09:13:01;;;;;;;4.07;1.40;;;;;;;;;;5046703;28;20052;-79
2021/12/19 09:15:27;;;;;;;7.70;1.70;;;;;;;;;;5049285;28;20115;-81
2021/12/19 09:17:54;;;;;;;7.82;1.60;;;;;;;;;;5049724;28;20088;-80
2021/12/19 09:20:20;;;;;;;3.78;1.20;;;;;;;;;;5046998;28;20457;-80
2021/12/19 09:22:47;;;;;;;3.65;1.40;;;;;;;;;;5050293;28;20064;-79
2021/12/19 09:25:13;;;;;;;5.35;1.38;;;;;;;;;;5048668;28;20064;-80
2021/12/19 09:27:40;;;;;;;6.03;1.58;;;;;;;;;;5048887;28;20064;-81
2021/12/19 09:30:07;;;;;;;4.18;1.50;;;;;;;;;;5049051;28;20048;-80
2021/12/19 09:32:33;;;;;;;5.22;1.33;;;;;;;;;;5043072;28;20501;-79
2021/12/19 09:34:59;;;;;;;5.20;1.45;;;;;;;;;;5048864;28;20797;-79
2021/12/19 09:37:28;;;;;;;7.45;1.77;;;;;;;;;;5048960;28;20073;-80
2021/12/19 09:39:54;;;;;;;5.35;1.20;;;;;;;;;;5049247;28;20032;-80
2021/12/19 09:42:23;;;;;;;5.88;1.40;;;;;;;;;;5050140;28;20037;-79
2021/12/19 09:44:50;;;;;;;4.43;1.02;;;;;;;;;;5046724;28;20531;-79
2021/12/19 09:47:16;;;;;;;7.65;1.67;;;;;;;;;;5048701;28;20056;-79
2021/12/19 09:49:42;;;;;;;5.38;1.13;;;;;;;;;;5047772;28;20123;-80
2021/12/19 09:52:09;;;;;;;6.85;1.60;;;;;;;;;;5045248;28;20132;-80
2021/12/19 09:54:42;;;;;;;5.72;1.83;;;;;;;;;;5044207;28;20456;-79
2021/12/19 09:57:08;;;;;;;4.35;1.00;;;;;;;;;;5047584;28;20057;-78
2021/12/19 09:59:35;;;;;;;5.72;1.10;;;;;;;;;;5047485;28;20521;-78
2021/12/19 10:02:01;;;;;;;5.45;1.15;;;;;;;;;;5047968;28;20040;-78
2021/12/19 10:04:27;;;;;;;6.68;1.63;;;;;;;;;;5030660;28;20129;-82
2021/12/19 10:07:05;;;;;;;3.47;0.93;;;;;;;;;;5048981;28;20071;-81
2021/12/19 10:09:31;;;;;;;3.65;0.70;;;;;;;;;;5046272;28;20061;-80
2021/12/19 10:12:10;;;;;;;5.05;1.25;;;;;;;;;;5046992;28;20492;-79
2021/12/19 10:14:37;;;;;;;5.07;1.25;;;;;;;;;;5046129;28;20524;-81
2021/12/19 10:17:06;;;;;;;4.70;1.02;;;;;;;;;;5030208;28;20122;-79
2021/12/19 10:19:42;;;;;;;4.13;1.25;;;;;;;;;;5047162;28;20791;-79
2021/12/19 10:22:22;;;;;;;3.00;1.00;;;;;;;;;;5028550;28;20068;-79
2021/12/19 10:24:49;;;;;;;4.88;1.48;;;;;;;;;;5045375;28;20135;-81
2021/12/19 10:27:36;;;;;;;4.03;1.02;;;;;;;;;;5056185;28;20040;-80
2021/12/19 10:30:03;;;;;;;5.40;1.10;;;;;;;;;;5056357;28;20374;-80
2021/12/19 10:32:30;;;;;;;6.00;1.27;;;;;;;;;;5049679;28;20046;-80
2021/12/19 10:35:15;;;;;;;4.90;1.30;;;;;;;;;;5048138;28;20390;-77
2021/12/19 10:37:42;;;;;;;4.38;1.13;;;;;;;;;;5047418;28;20052;-79
2021/12/19 10:40:08;;;;;;;2.58;0.95;;;;;;;;;;5028385;28;20453;-78
2021/12/19 10:43:16;;;;;;;4.70;1.00;;;;;;;;;;5026881;28;20102;-78
2021/12/19 10:45:53;;;;;;;4.53;1.23;;;;;;;;;;4965603;28;20074;-79
2021/12/19 10:48:22;;;;;;;2.95;1.00;;;;;;;;;;5038332;28;20056;-78
2021/12/19 10:50:51;;;;;;;3.85;1.25;;;;;;;;;;5046654;28;20052;-77
2021/12/19 10:53:18;;;;;;;2.72;0.93;;;;;;;;;;5047049;28;20103;-78
2021/12/19 10:55:49;;;;;;;3.28;1.00;;;;;;;;;;5047125;28;20111;-79
2021/12/19 10:58:19;;;;;;;4.82;1.25;;;;;;;;;;5046859;28;20551;-78
2021/12/19 11:01:04;;;;;;;2.13;0.98;;;;;;;;;;5020031;28;20084;-78
2021/12/19 11:03:37;;;;;;;2.20;0.88;;;;;;;;;;5046405;28;20527;-77
2021/12/19 11:06:21;;;;;;;2.33;0.98;;;;;;;;;;5045902;28;20084;-79
2021/12/19 11:08:47;;;;;;;5.03;1.10;;;;;;;;;;5045565;28;20516;-78
2021/12/19 11:11:29;;;;;;;2.33;0.57;;;;;;;;;;5049674;28;20602;-78
2021/12/19 11:13:56;;;;;;;4.18;0.93;;;;;;;;;;5047103;28;20419;-77
2021/12/19 11:16:22;;;;;;;4.50;1.02;;;;;;;;;;5051451;28;20505;-79
2021/12/19 11:18:49;;;;;;;2.33;0.77;;;;;;;;;;5046097;28;20061;-80
2021/12/19 11:21:17;;;;;;;4.28;1.00;;;;;;;;;;5045946;28;20079;-81
2021/12/19 11:23:44;;;;;;;3.03;0.60;;;;;;;;;;5042760;28;20056;-79
2021/12/19 11:26:11;;;;;;;3.97;0.70;;;;;;;;;;5028556;28;20775;-80
2021/12/19 11:28:38;;;;;;;3.08;0.90;;;;;;;;;;5044287;28;20689;-79
2021/12/19 11:31:05;;;;;;;3.90;1.02;;;;;;;;;;5045833;28;20064;-76
2021/12/19 11:33:34;;;;;;;5.90;1.00;;;;;;;;;;5039978;28;20064;-80
2021/12/19 11:36:01;;;;;;;5.20;0.70;;;;;;;;;;5042665;28;20076;-78
2021/12/19 11:38:29;;;;;;;4.70;0.90;;;;;;;;;;5040334;28;20118;-79
2021/12/19 11:40:55;;;;;;;2.03;0.70;;;;;;;;;;5047486;28;20122;-79
2021/12/19 11:43:21;;;;;;;4.32;1.23;;;;;;;;;;5048190;28;20087;-79
2021/12/19 11:46:00;;;;;;;4.32;0.85;;;;;;;;;;5028902;28;20069;-78
2021/12/19 11:48:33;;;;;;;2.28;0.85;;;;;;;;;;5041917;28;20060;-75
2021/12/19 11:51:04;;;;;;;1.50;0.57;;;;;;;;;;5046594;28;20105;-75
2021/12/19 11:53:43;;;;;;;2.70;0.80;;;;;;;;;;5043738;28;20110;-75
2021/12/19 11:56:11;;;;;;;3.90;0.98;;;;;;;;;;5047728;28;20068;-75
2021/12/19 11:58:48;;;;;;;6.20;1.00;;;;;;;;;;5047005;28;20876;-74
2021/12/19 12:01:20;;;;;;;4.32;1.02;;;;;;;;;;5028835;28;20559;-75
2021/12/19 12:03:51;;;;;;;4.65;1.00;;;;;;;;;;5040966;28;20132;-74
2021/12/19 12:06:20;;;;;;;4.18;1.13;;;;;;;;;;5046463;28;20033;-74
2021/12/19 12:09:12;;;;;;;4.45;1.10;;;;;;;;;;5028628;28;20123;-78
2021/12/19 12:11:40;;;;;;;4.40;1.05;;;;;;;;;;5040815;28;20048;-74
2021/12/19 12:14:23;;;;;;;6.65;1.40;;;;;;;;;;5046186;28;20080;-74
2021/12/19 12:16:54;;;;;;;5.93;1.40;;;;;;;;;;5042573;28;20570;-74
2021/12/19 12:19:37;;;;;;;4.93;1.45;;;;;;;;;;5043075;28;20045;-75
2021/12/19 12:22:36;;;;;;;6.55;1.38;;;;;;;;;;5044724;28;21851;-75
2021/12/19 12:25:03;;;;;;;8.20;1.23;;;;;;;;;;5044692;28;20503;-76
2021/12/19 12:27:43;;;;;;;7.40;1.80;;;;;;;;;;5021761;28;20077;-76
2021/12/19 12:30:11;;;;;;;3.50;1.30;;;;;;;;;;5045199;28;20064;-74
2021/12/19 12:32:38;;;;;;;4.25;1.10;;;;;;;;;;5044715;28;20082;-75
2021/12/19 12:35:05;;;;;;;5.45;1.60;;;;;;;;;;5046785;28;20065;-75
2021/12/19 12:37:33;;;;;;;3.67;1.10;;;;;;;;;;5047663;28;20085;-75
2021/12/19 12:40:16;;;;;;;7.28;1.85;;;;;;;;;;5047337;28;20053;-75
2021/12/19 12:43:15;;;;;;;6.28;1.60;;;;;;;;;;5045960;28;20461;-74
2021/12/19 12:45:47;;;;;;;5.45;2.05;;;;;;;;;;5022646;28;20079;-75
2021/12/19 12:48:25;;;;;;;4.70;1.77;;;;;;;;;;5045701;28;20118;-75
2021/12/19 12:50:51;;;;;;;4.88;1.88;;;;;;;;;;5047579;28;20195;-75
2021/12/19 12:53:50;;;;;;;4.97;1.83;;;;;;;;;;5047774;28;20377;-76
2021/12/19 12:56:19;;;;;;;7.35;1.95;;;;;;;;;;4997766;28;20071;-76
2021/12/19 12:58:47;;;;;;;5.07;1.77;;;;;;;;;;5044493;28;20048;-75
2021/12/19 13:01:18;;;;;;;7.80;2.20;;;;;;;;;;5045857;28;20497;-76
2021/12/19 13:03:54;;;;;;;6.72;1.95;;;;;;;;;;5047332;28;20131;-75
2021/12/19 13:06:40;;;;;;;3.92;1.40;;;;;;;;;;5043722;28;20065;-75
2021/12/19 13:09:18;;;;;;;5.72;2.17;;;;;;;;;;5026606;28;20069;-76
2021/12/19 13:11:46;;;;;;;7.40;1.92;;;;;;;;;;5030624;28;20065;-77
2021/12/19 13:14:14;;;;;;;5.88;1.60;;;;;;;;;;5028893;28;20064;-77
2021/12/19 13:17:00;;;;;;;9.07;1.90;;;;;;;;;;5045250;28;20037;-75
2021/12/19 13:19:43;;;;;;;7.78;1.90;;;;;;;;;;5042352;28;20073;-74
2021/12/19 13:22:11;;;;;;;7.07;1.77;;;;;;;;;;5044429;28;20061;-75
2021/12/19 13:24:38;;;;;;;4.18;1.45;;;;;;;;;;5049501;28;20071;-76
2021/12/19 13:27:09;;;;;;;5.15;1.38;;;;;;;;;;5048134;28;20076;-76
2021/12/19 13:29:36;;;;;;;4.18;1.40;;;;;;;;;;5042993;28;20092;-75
2021/12/19 13:32:19;;;;;;;4.45;1.30;;;;;;;;;;5041481;28;20072;-75
2021/12/19 13:34:46;;;;;;;7.43;1.48;;;;;;;;;;5043504;28;20060;-74
2021/12/19 13:37:12;;;;;;;6.90;1.58;;;;;;;;;;5025796;28;20069;-74
2021/12/19 13:39:41;;;;;;;5.28;1.38;;;;;;;;;;5044123;28;20374;-74
2021/12/19 13:42:08;;;;;;;4.85;1.30;;;;;;;;;;5046147;28;20056;-76
2021/12/19 13:44:35;;;;;;;2.70;1.20;;;;;;;;;;5047836;28;20072;-75
2021/12/19 13:47:12;;;;;;;6.97;1.40;;;;;;;;;;5046622;28;20520;-74
2021/12/19 13:49:39;;;;;;;5.97;1.40;;;;;;;;;;5045143;28;20068;-75
2021/12/19 13:52:06;;;;;;;4.32;1.30;;;;;;;;;;5027830;28;20045;-75
2021/12/19 13:54:36;;;;;;;2.78;1.05;;;;;;;;;;5029987;28;20064;-74
2021/12/19 13:57:03;;;;;;;4.35;1.33;;;;;;;;;;5045852;28;20057;-74
2021/12/19 13:59:29;;;;;;;3.80;1.40;;;;;;;;;;5048725;28;20075;-74
2021/12/19 14:01:57;;;;;;;3.83;1.52;;;;;;;;;;5049269;28;20065;-75
2021/12/19 14:04:25;;;;;;;3.50;1.23;;;;;;;;;;5046593;28;20064;-75
2021/12/19 14:06:59;;;;;;;4.50;1.58;;;;;;;;;;5026093;28;20739;-76
2021/12/19 14:09:26;;;;;;;5.03;1.40;;;;;;;;;;5048150;28;20033;-76
2021/12/19 14:12:01;;;;;;;6.05;1.20;;;;;;;;;;5042386;28;20060;-76
2021/12/19 14:14:30;;;;;;;4.03;1.63;;;;;;;;;;5044400;28;20111;-77
2021/12/19 14:16:58;;;;;;;2.92;0.98;;;;;;;;;;5030231;28;20060;-78
2021/12/19 14:19:26;;;;;;;3.70;0.90;;;;;;;;;;5045756;28;20110;-78
2021/12/19 14:21:55;;;;;;;4.03;1.00;;;;;;;;;;5045577;28;20299;-75
2021/12/19 14:24:24;;;;;;;2.90;1.00;;;;;;;;;;5047298;28;20072;-75
2021/12/19 14:27:03;;;;;;;3.83;0.95;;;;;;;;;;5023339;28;20122;-76
2021/12/19 14:29:30;;;;;;;3.20;0.90;;;;;;;;;;5046059;28;20072;-77
2021/12/19 14:31:58;;;;;;;3.17;0.77;;;;;;;;;;5044810;28;20057;-76
2021/12/19 14:34:27;;;;;;;3.72;0.95;;;;;;;;;;5047849;28;20104;-78
2021/12/19 14:36:55;;;;;;;2.47;1.25;;;;;;;;;;5025358;28;20079;-75
2021/12/19 14:39:26;;;;;;;3.83;0.80;;;;;;;;;;5048936;28;20061;-75
2021/12/19 14:41:52;;;;;;;;;;;;;;;;;;5040718;28;21272;-76
2021/12/19 14:44:20;;;;;;;4.25;1.05;;;;;;;;;;5026799;28;20006;-77
2021/12/19 14:46:46;;;;;;;3.08;0.88;;;;;;;;;;5047470;28;20102;-77
2021/12/19 14:49:13;;;;;;;3.92;1.05;;;;;;;;;;5049580;28;20488;-76
2021/12/19 14:51:39;;;;;;;2.75;0.88;;;;;;;;;;5045045;28;20153;-75
2021/12/19 14:54:06;;;;;;;2.53;0.95;;;;;;;;;;5047687;28;20071;-75
2021/12/19 14:56:33;;;;;;;3.13;1.10;;;;;;;;;;5044536;28;20087;-77
2021/12/19 14:59:00;;;;;;;1.83;0.70;;;;;;;;;;5045699;28;20134;-75
2021/12/19 15:01:32;;;;;;;2.30;0.77;;;;;;;;;;5045424;28;20094;-76
2021/12/19 15:04:10;;;;;;;2.53;0.80;;;;;;;;;;5027572;28;20086;-76
2021/12/19 15:06:40;;;;;;;3.50;0.90;;;;;;;;;;5046441;28;20094;-76
2021/12/19 15:09:08;;;;;;;3.78;0.98;;;;;;;;;;5027984;28;20592;-77
2021/12/19 15:11:36;;;;;;;1.73;0.90;;;;;;;;;;5044015;28;20075;-76
2021/12/19 15:14:03;;;;;;;1.83;0.70;;;;;;;;;;5049674;28;20064;-77
2021/12/19 15:16:32;;;;;;;3.10;0.70;;;;;;;;;;5030569;28;20056;-75
2021/12/19 15:18:59;;;;;;;1.65;0.75;;;;;;;;;;5041398;28;20802;-75
2021/12/19 15:21:26;;;;;;;1.77;0.68;;;;;;;;;;5044342;28;20095;-75
2021/12/19 15:23:53;;;;;;;2.28;0.73;;;;;;;;;;5044817;28;20175;-77
2021/12/19 15:26:20;;;;;;;2.15;0.80;;;;;;;;;;5045190;28;20041;-75
2021/12/19 15:28:49;;;;;;;1.60;0.60;;;;;;;;;;5044904;28;20056;-77
2021/12/19 15:31:18;;;;;;;1.50;0.70;;;;;;;;;;5046032;28;20064;-77
2021/12/19 15:33:45;;;;;;;2.67;0.82;;;;;;;;;;5041941;28;20056;-77
2021/12/19 15:36:12;;;;;;;2.72;0.57;;;;;;;;;;5049306;28;20504;-77
2021/12/19 15:38:38;;;;;;;1.15;0.50;;;;;;;;;;5044470;28;20069;-77
2021/12/19 15:41:05;;;;;;;1.48;0.60;;;;;;;;;;5029871;28;20065;-77
2021/12/19 15:43:32;;;;;;;1.77;0.40;;;;;;;;;;5046880;28;20580;-76
2021/12/19 15:45:58;;;;;;;2.25;0.82;;;;;;;;;;5050556;28;20069;-76
2021/12/19 15:48:25;;;;;;;2.08;0.63;;;;;;;;;;5057735;28;20041;-76
2021/12/19 15:50:51;;;;;;;4.13;0.55;;;;;;;;;;5038904;28;20049;-77
2021/12/19 15:53:18;;;;;;;1.65;0.60;;;;;;;;;;5068478;28;20037;-77
2021/12/19 15:55:44;;;;;;;1.15;0.55;;;;;;;;;;5066047;28;20040;-77
2021/12/19 15:58:11;;;;;;;1.75;0.50;;;;;;;;;;5069099;28;20033;-78
2021/12/19 16:00:38;;;;;;;2.05;0.85;;;;;;;;;;5070154;28;20033;-75
2021/12/19 16:03:05;;;;;;;1.20;0.60;;;;;;;;;;5070547;28;20017;-77
2021/12/19 16:05:31;;;;;;;1.60;0.57;;;;;;;;;;5069311;28;20041;-76